Time;durP1;ratioP1;P1;durP2;ratioP2;P2;SDS_P1;SDS_P2;PMS_P1;PMS_P2;Temp;Humidity;BMP_temperature;BMP_pressure;BME280_temperature;BME280_humidity;BME280_pressure;Samples;Min_cycle;Max_cycle;Signal;HPM_P1;HPM_P2
2023/11/25 00:00:51;;;;;;;13.23;1.90;;;3.80;99.90;;;;;;5026952;28;20060;-68
2023/11/25 00:03:18;;;;;;;11.88;2.13;;;3.70;99.90;;;;;;5021538;28;20559;-68
2023/11/25 00:05:45;;;;;;;4.82;1.85;;;3.70;99.90;;;;;;4991442;28;20053;-67
2023/11/25 00:08:11;;;;;;;8.15;1.90;;;3.70;99.90;;;;;;5024525;28;20046;-66
2023/11/25 00:10:38;;;;;;;8.00;2.47;;;3.70;99.90;;;;;;5025287;28;20374;-66
2023/11/25 00:13:05;;;;;;;7.00;2.17;;;3.70;99.90;;;;;;5023036;28;20533;-66
2023/11/25 00:15:33;;;;;;;10.77;2.42;;;3.60;99.90;;;;;;4677718;28;10000031;-67
2023/11/25 00:18:00;;;;;;;10.60;2.80;;;3.50;99.90;;;;;;5026622;28;20046;-67
2023/11/25 00:20:27;;;;;;;9.43;2.20;;;3.40;99.90;;;;;;5019033;28;20049;-67
2023/11/25 00:22:54;;;;;;;6.50;2.20;;;3.30;99.90;;;;;;5005252;28;20084;-67
2023/11/25 00:25:24;;;;;;;10.70;3.90;;;3.30;99.90;;;;;;5025919;28;20413;-66
2023/11/25 00:27:51;;;;;;;6.30;1.80;;;3.30;99.90;;;;;;5023455;28;20059;-67
2023/11/25 00:30:18;;;;;;;7.45;2.38;;;3.20;99.90;;;;;;5028125;28;20131;-67
2023/11/25 00:32:45;;;;;;;10.93;2.08;;;3.20;99.90;;;;;;5027889;28;20042;-67
2023/11/25 00:35:13;;;;;;;16.08;2.50;;;3.10;99.90;;;;;;5027439;28;20045;-67
2023/11/25 00:37:41;;;;;;;17.08;2.78;;;3.10;99.90;;;;;;5026459;28;20046;-67
2023/11/25 00:40:12;;;;;;;12.98;2.20;;;3.00;99.90;;;;;;5023888;28;20049;-67
2023/11/25 00:42:39;;;;;;;10.20;2.20;;;3.00;99.90;;;;;;5009954;28;20083;-67
2023/11/25 00:45:10;;;;;;;10.15;2.00;;;2.90;99.90;;;;;;5027031;28;20041;-67
2023/11/25 00:47:40;;;;;;;6.57;2.03;;;2.90;99.90;;;;;;5024050;28;20065;-67
2023/11/25 00:50:11;;;;;;;9.75;2.53;;;2.90;99.90;;;;;;5026024;28;20061;-67
2023/11/25 00:52:38;;;;;;;8.50;2.33;;;2.80;99.90;;;;;;5029570;28;20049;-67
2023/11/25 00:55:06;;;;;;;7.25;2.60;;;2.80;99.90;;;;;;5011319;28;20049;-69
2023/11/25 00:57:34;;;;;;;9.75;2.60;;;2.80;99.90;;;;;;5028016;28;20042;-67
2023/11/25 01:00:04;;;;;;;11.40;2.50;;;2.80;99.90;;;;;;5029831;28;20049;-66
2023/11/25 01:02:31;;;;;;;13.20;2.20;;;2.80;99.90;;;;;;5013930;28;20049;-67
2023/11/25 01:04:58;;;;;;;11.30;2.00;;;2.80;99.90;;;;;;5029398;28;20133;-67
2023/11/25 01:07:25;;;;;;;7.32;2.25;;;2.70;99.90;;;;;;5030949;28;20052;-68
2023/11/25 01:09:51;;;;;;;5.32;2.13;;;2.70;99.90;;;;;;5029468;28;20053;-67
2023/11/25 01:12:20;;;;;;;10.77;2.30;;;2.70;99.90;;;;;;5012416;28;20050;-67
2023/11/25 01:14:47;;;;;;;12.70;2.00;;;2.70;99.90;;;;;;5013517;28;20136;-66
2023/11/25 01:17:16;;;;;;;12.05;2.42;;;2.70;99.90;;;;;;5032393;28;20535;-66
2023/11/25 01:19:43;;;;;;;8.85;2.28;;;2.70;99.90;;;;;;5032038;28;20071;-66
2023/11/25 01:22:10;;;;;;;4.70;2.05;;;2.60;99.90;;;;;;5031791;28;20041;-68
2023/11/25 01:24:37;;;;;;;9.68;2.17;;;2.60;99.90;;;;;;5030583;28;20104;-67
2023/11/25 01:27:04;;;;;;;9.98;2.45;;;2.60;99.90;;;;;;5029307;28;20044;-66
2023/11/25 01:29:31;;;;;;;6.30;2.35;;;2.60;99.90;;;;;;5027121;28;20095;-67
2023/11/25 01:31:59;;;;;;;10.57;3.20;;;2.60;99.90;;;;;;5031113;28;20049;-67
2023/11/25 01:34:25;;;;;;;7.97;1.88;;;2.60;99.90;;;;;;5028894;28;20084;-68
2023/11/25 01:36:53;;;;;;;8.10;2.38;;;2.60;99.90;;;;;;5014600;28;20056;-67
2023/11/25 01:39:20;;;;;;;7.93;2.40;;;2.60;99.90;;;;;;5036380;28;20050;-70
2023/11/25 01:41:47;;;;;;;7.00;2.13;;;2.60;99.90;;;;;;5037666;28;20303;-67
2023/11/25 01:44:14;;;;;;;8.13;2.10;;;2.60;99.90;;;;;;5019609;28;20057;-68
2023/11/25 01:46:42;;;;;;;13.13;2.75;;;2.50;99.90;;;;;;5036126;28;20393;-66
2023/11/25 01:49:14;;;;;;;5.28;1.95;;;2.60;99.90;;;;;;5037194;28;20072;-67
2023/11/25 01:51:44;;;;;;;5.05;2.00;;;2.50;99.90;;;;;;5032086;28;20091;-68
2023/11/25 01:54:15;;;;;;;8.07;2.17;;;2.50;99.90;;;;;;5020802;28;20105;-68
2023/11/25 01:56:49;;;;;;;11.07;1.90;;;2.50;99.90;;;;;;5020285;28;20157;-68
2023/11/25 01:59:16;;;;;;;;;;;2.40;99.90;;;;;;5018104;28;20477;-67
2023/11/25 02:01:43;;;;;;;5.63;2.17;;;2.40;99.90;;;;;;5019855;28;19931;-66
2023/11/25 02:04:10;;;;;;;9.07;2.75;;;2.40;99.90;;;;;;5037398;28;20065;-69
2023/11/25 02:06:37;;;;;;;12.40;2.83;;;2.30;99.90;;;;;;5037371;28;20061;-67
2023/11/25 02:09:06;;;;;;;9.27;2.45;;;2.30;99.90;;;;;;5020036;28;20076;-67
2023/11/25 02:11:59;;;;;;;14.98;2.85;;;2.10;99.90;;;;;;5036120;28;20492;-67
2023/11/25 02:14:26;;;;;;;7.30;2.60;;;2.10;99.90;;;;;;5036111;28;20060;-67
2023/11/25 02:16:56;;;;;;;9.30;2.37;;;2.10;99.90;;;;;;4685953;28;9999829;-66
2023/11/25 02:19:26;;;;;;;7.18;1.98;;;2.10;99.90;;;;;;5016315;28;20053;-66
2023/11/25 02:21:55;;;;;;;13.85;3.03;;;2.00;99.90;;;;;;5033290;28;20485;-66
2023/11/25 02:24:26;;;;;;;6.18;2.20;;;2.10;99.90;;;;;;5034988;28;20053;-68
2023/11/25 02:27:00;;;;;;;7.13;1.73;;;2.00;99.90;;;;;;5038604;28;20047;-69
2023/11/25 02:29:27;;;;;;;5.20;2.00;;;2.00;99.90;;;;;;5034411;28;20081;-65
2023/11/25 02:31:54;;;;;;;9.52;1.75;;;2.10;99.90;;;;;;5017821;28;20855;-66
2023/11/25 02:34:21;;;;;;;9.80;1.83;;;2.00;99.90;;;;;;5036867;28;20515;-67
2023/11/25 02:36:48;;;;;;;9.52;2.00;;;2.00;99.90;;;;;;5019529;28;20244;-66
2023/11/25 02:39:18;;;;;;;6.13;2.15;;;1.90;99.90;;;;;;5037401;28;20049;-68
2023/11/25 02:41:48;;;;;;;4.60;1.50;;;1.90;99.90;;;;;;5037716;28;20047;-67
2023/11/25 02:44:16;;;;;;;10.27;1.77;;;1.90;99.90;;;;;;5029672;28;20100;-67
2023/11/25 02:46:44;;;;;;;14.68;2.17;;;1.90;99.90;;;;;;5031353;28;20038;-66
2023/11/25 02:49:12;;;;;;;7.45;2.25;;;1.90;99.90;;;;;;5000838;28;20061;-66
2023/11/25 02:51:48;;;;;;;6.68;2.25;;;1.90;99.90;;;;;;5036207;28;20065;-66
2023/11/25 02:54:15;;;;;;;7.78;2.20;;;2.00;99.90;;;;;;5034121;28;20077;-67
2023/11/25 02:56:46;;;;;;;7.00;2.83;;;1.90;99.90;;;;;;5017041;28;20049;-68
2023/11/25 02:59:12;;;;;;;9.50;2.42;;;1.90;99.90;;;;;;5035614;28;20056;-67
2023/11/25 03:01:48;;;;;;;7.40;2.55;;;1.90;99.90;;;;;;5034809;28;20041;-66
2023/11/25 03:04:16;;;;;;;4.82;1.83;;;1.80;99.90;;;;;;5015878;28;20054;-66
2023/11/25 03:06:45;;;;;;;12.45;2.10;;;1.80;99.90;;;;;;5026859;28;20068;-67
2023/11/25 03:09:13;;;;;;;7.13;2.45;;;1.80;99.90;;;;;;5033928;28;20053;-68
2023/11/25 03:11:40;;;;;;;8.18;1.80;;;1.70;99.90;;;;;;5034202;28;20052;-66
2023/11/25 03:14:07;;;;;;;14.27;2.60;;;1.70;99.90;;;;;;5033884;28;20445;-66
2023/11/25 03:16:34;;;;;;;15.35;1.95;;;1.70;99.90;;;;;;5016787;28;20068;-66
2023/11/25 03:19:02;;;;;;;8.07;2.35;;;1.70;99.90;;;;;;5032846;28;20068;-66
2023/11/25 03:21:30;;;;;;;11.73;1.85;;;1.70;99.90;;;;;;5017410;28;20076;-67
2023/11/25 03:23:59;;;;;;;8.73;2.13;;;1.70;99.90;;;;;;5034854;28;20105;-66
2023/11/25 03:26:26;;;;;;;9.68;1.75;;;1.70;99.90;;;;;;5034732;28;20076;-65
2023/11/25 03:28:52;;;;;;;5.63;2.15;;;1.70;99.90;;;;;;5034342;28;20488;-66
2023/11/25 03:31:19;;;;;;;15.02;3.42;;;1.60;99.90;;;;;;5030276;28;20053;-69
2023/11/25 03:33:46;;;;;;;6.93;1.92;;;1.60;99.90;;;;;;5035264;28;20060;-66
2023/11/25 03:36:13;;;;;;;5.63;2.33;;;1.70;99.90;;;;;;5035253;28;20065;-67
2023/11/25 03:38:40;;;;;;;10.15;2.03;;;1.70;99.90;;;;;;5036352;28;20046;-66
2023/11/25 03:41:08;;;;;;;14.90;4.45;;;1.70;99.90;;;;;;5034354;28;20045;-67
2023/11/25 03:43:35;;;;;;;8.85;2.13;;;1.80;99.90;;;;;;5030903;28;20050;-67
2023/11/25 03:46:04;;;;;;;10.48;2.00;;;1.70;99.90;;;;;;5033494;28;20061;-68
2023/11/25 03:48:32;;;;;;;8.82;2.20;;;1.60;99.90;;;;;;5034889;28;20045;-67
2023/11/25 03:50:59;;;;;;;9.05;2.20;;;1.60;99.90;;;;;;5033114;28;20064;-67
2023/11/25 03:53:27;;;;;;;6.72;1.77;;;1.60;99.90;;;;;;5035000;28;20041;-66
2023/11/25 03:55:54;;;;;;;9.30;1.85;;;1.60;99.90;;;;;;5033995;28;20144;-66
2023/11/25 03:58:21;;;;;;;9.02;2.25;;;1.50;99.90;;;;;;5034506;28;20472;-68
2023/11/25 04:00:48;;;;;;;9.43;2.42;;;1.50;99.90;;;;;;5012757;28;20333;-66
2023/11/25 04:03:15;;;;;;;11.57;3.05;;;1.60;99.90;;;;;;5029684;28;20124;-66
2023/11/25 04:05:41;;;;;;;9.25;2.35;;;1.60;99.90;;;;;;5034924;28;20049;-66
2023/11/25 04:08:08;;;;;;;8.15;3.25;;;1.60;99.90;;;;;;5033806;28;20107;-66
2023/11/25 04:10:36;;;;;;;15.60;2.83;;;1.60;99.90;;;;;;5032595;28;20092;-67
2023/11/25 04:13:03;;;;;;;10.27;2.47;;;1.70;99.90;;;;;;5016472;28;20060;-66
2023/11/25 04:15:30;;;;;;;3.60;1.70;;;1.60;99.90;;;;;;5033523;28;20045;-66
2023/11/25 04:17:57;;;;;;;8.00;2.45;;;1.60;99.90;;;;;;5013674;28;20072;-66
2023/11/25 04:20:25;;;;;;;7.82;1.63;;;1.50;99.90;;;;;;5012886;28;20049;-66
2023/11/25 04:22:53;;;;;;;11.18;2.45;;;1.40;99.90;;;;;;5031357;28;20041;-66
2023/11/25 04:25:20;;;;;;;4.80;1.95;;;1.70;99.90;;;;;;5032625;28;20500;-67
2023/11/25 04:27:48;;;;;;;10.60;2.05;;;1.40;99.90;;;;;;5029230;28;20045;-67
2023/11/25 04:30:18;;;;;;;6.85;2.22;;;1.40;99.90;;;;;;5032848;28;20064;-68
2023/11/25 04:32:46;;;;;;;7.57;2.22;;;1.30;99.90;;;;;;5031923;28;20041;-66
2023/11/25 04:35:16;;;;;;;5.30;2.13;;;1.30;99.90;;;;;;5015371;28;20045;-66
2023/11/25 04:37:46;;;;;;;5.63;2.47;;;1.30;99.90;;;;;;5014472;28;20050;-67
2023/11/25 04:40:13;;;;;;;6.38;2.17;;;1.40;99.90;;;;;;5015855;28;20116;-67
2023/11/25 04:42:41;;;;;;;4.35;1.98;;;1.40;99.90;;;;;;5031213;28;20416;-66
2023/11/25 04:45:19;;;;;;;4.35;1.92;;;1.40;99.90;;;;;;5031768;28;20049;-66
2023/11/25 04:47:48;;;;;;;10.77;2.60;;;1.40;99.90;;;;;;5030202;28;20042;-67
2023/11/25 04:50:16;;;;;;;13.15;2.45;;;1.40;99.90;;;;;;5024097;28;20049;-66
2023/11/25 04:52:43;;;;;;;7.35;1.73;;;1.30;99.90;;;;;;5015383;28;20053;-66
2023/11/25 04:55:14;;;;;;;5.15;2.50;;;1.20;99.90;;;;;;5015922;28;20093;-67
2023/11/25 04:57:42;;;;;;;14.50;2.28;;;1.20;99.90;;;;;;5015763;28;20053;-67
2023/11/25 05:00:10;;;;;;;8.93;3.30;;;1.20;99.90;;;;;;5012095;28;20049;-66
2023/11/25 05:02:38;;;;;;;6.40;2.30;;;1.20;99.90;;;;;;5016745;28;20037;-66
2023/11/25 05:05:05;;;;;;;9.90;1.77;;;1.20;99.90;;;;;;5033594;28;20065;-66
2023/11/25 05:07:33;;;;;;;18.13;2.65;;;1.20;99.90;;;;;;5032579;28;20037;-66
2023/11/25 05:10:00;;;;;;;12.27;3.28;;;1.20;99.90;;;;;;5015111;28;20045;-66
2023/11/25 05:12:27;;;;;;;11.63;2.20;;;1.10;99.90;;;;;;5032970;28;20548;-67
2023/11/25 05:14:54;;;;;;;10.27;2.78;;;1.10;99.90;;;;;;5035767;28;20108;-66
2023/11/25 05:17:22;;;;;;;13.90;1.83;;;1.30;99.90;;;;;;5018198;28;20054;-67
2023/11/25 05:19:49;;;;;;;4.05;1.65;;;1.10;99.90;;;;;;5016461;28;20068;-67
2023/11/25 05:22:16;;;;;;;6.50;2.22;;;1.10;99.90;;;;;;5034958;28;20124;-66
2023/11/25 05:24:42;;;;;;;12.70;2.17;;;1.00;99.90;;;;;;5036322;28;20072;-66
2023/11/25 05:27:09;;;;;;;9.15;2.15;;;1.00;99.90;;;;;;5036568;28;20049;-67
2023/11/25 05:29:36;;;;;;;8.55;2.10;;;1.10;99.90;;;;;;5017417;28;20048;-68
2023/11/25 05:32:03;;;;;;;8.65;2.33;;;1.10;99.90;;;;;;5035797;28;20042;-67
2023/11/25 05:34:31;;;;;;;6.20;2.13;;;1.10;99.90;;;;;;5035263;28;20556;-67
2023/11/25 05:36:58;;;;;;;7.80;2.50;;;1.10;99.90;;;;;;5036817;28;20064;-67
2023/11/25 05:39:24;;;;;;;7.15;1.90;;;1.20;99.90;;;;;;5035426;28;20692;-66
2023/11/25 05:41:51;;;;;;;6.40;2.08;;;1.20;99.90;;;;;;5036142;28;20119;-66
2023/11/25 05:44:20;;;;;;;6.78;2.42;;;1.10;99.90;;;;;;5035283;28;20087;-66
2023/11/25 05:46:47;;;;;;;7.38;2.30;;;1.10;99.90;;;;;;5018528;28;20071;-67
2023/11/25 05:49:14;;;;;;;7.65;2.20;;;1.10;99.90;;;;;;5003025;28;20448;-67
2023/11/25 05:51:45;;;;;;;8.77;2.08;;;1.30;99.90;;;;;;5018731;28;20049;-68
2023/11/25 05:54:16;;;;;;;10.93;2.88;;;1.00;99.90;;;;;;5024697;28;20033;-67
2023/11/25 05:56:43;;;;;;;9.70;2.47;;;1.00;99.90;;;;;;5036054;28;20077;-66
2023/11/25 05:59:10;;;;;;;9.13;2.78;;;1.00;99.90;;;;;;5034089;28;20136;-67
2023/11/25 06:01:37;;;;;;;4.75;2.58;;;1.00;99.90;;;;;;5035687;28;20553;-68
2023/11/25 06:04:05;;;;;;;9.90;2.38;;;0.90;99.90;;;;;;5034622;28;20512;-66
2023/11/25 06:06:32;;;;;;;6.38;2.00;;;0.90;99.90;;;;;;5018405;28;20451;-66
2023/11/25 06:08:59;;;;;;;8.15;1.90;;;0.90;99.90;;;;;;5035752;28;20492;-66
2023/11/25 06:11:27;;;;;;;7.05;2.28;;;0.90;99.90;;;;;;5035657;28;20045;-67
2023/11/25 06:13:57;;;;;;;5.25;2.40;;;0.90;99.90;;;;;;5033550;28;20253;-66
2023/11/25 06:16:29;;;;;;;5.88;1.85;;;0.90;99.90;;;;;;5034260;28;20095;-66
2023/11/25 06:18:56;;;;;;;12.48;2.08;;;0.90;99.90;;;;;;5035927;28;20041;-67
2023/11/25 06:21:26;;;;;;;7.10;4.30;;;1.00;99.90;;;;;;5034901;28;20045;-66
2023/11/25 06:23:53;;;;;;;8.25;2.42;;;0.90;99.90;;;;;;5020146;28;20042;-67
2023/11/25 06:26:20;;;;;;;12.18;2.63;;;0.90;99.90;;;;;;5019180;28;20112;-65
2023/11/25 06:28:47;;;;;;;10.48;2.53;;;1.10;99.90;;;;;;5022320;28;20046;-66
2023/11/25 06:31:15;;;;;;;12.93;3.33;;;0.90;99.90;;;;;;5027414;28;20041;-66
2023/11/25 06:33:42;;;;;;;6.68;2.45;;;0.90;99.90;;;;;;5014935;28;20046;-66
2023/11/25 06:36:10;;;;;;;9.23;2.42;;;1.30;99.90;;;;;;5035014;28;20404;-67
2023/11/25 06:38:37;;;;;;;9.73;2.28;;;0.90;99.90;;;;;;5034489;28;20102;-66
2023/11/25 06:41:04;;;;;;;10.88;2.83;;;0.90;99.90;;;;;;5033000;28;20053;-66
2023/11/25 06:43:31;;;;;;;7.70;2.17;;;0.90;99.90;;;;;;5015574;28;20046;-67
2023/11/25 06:45:59;;;;;;;4.95;2.20;;;0.80;99.90;;;;;;5034172;28;20120;-67
2023/11/25 06:48:26;;;;;;;11.20;2.50;;;0.80;99.90;;;;;;5033631;28;20041;-66
2023/11/25 06:50:58;;;;;;;5.72;2.35;;;0.80;99.90;;;;;;5023366;28;20056;-66
2023/11/25 06:53:25;;;;;;;16.15;3.72;;;0.80;99.90;;;;;;5034392;28;20045;-67
2023/11/25 06:55:51;;;;;;;10.68;2.70;;;0.70;99.90;;;;;;5016238;28;20460;-66
2023/11/25 06:58:19;;;;;;;11.27;2.92;;;0.80;99.90;;;;;;5032311;28;20168;-67
2023/11/25 07:00:46;;;;;;;4.70;1.95;;;0.80;99.90;;;;;;5033744;28;20073;-67
2023/11/25 07:03:13;;;;;;;7.47;2.28;;;0.70;99.90;;;;;;5032509;28;20069;-65
2023/11/25 07:05:40;;;;;;;6.25;2.47;;;0.70;99.90;;;;;;5017995;28;20045;-67
2023/11/25 07:08:07;;;;;;;11.30;2.15;;;0.70;99.90;;;;;;5036149;28;20042;-66
2023/11/25 07:10:36;;;;;;;14.32;2.83;;;0.70;99.90;;;;;;5012033;28;20080;-66
2023/11/25 07:13:04;;;;;;;9.00;3.22;;;0.70;99.90;;;;;;5031367;28;20080;-66
2023/11/25 07:15:31;;;;;;;8.55;3.03;;;0.80;99.90;;;;;;5013419;28;20492;-66
2023/11/25 07:17:59;;;;;;;8.40;2.40;;;0.60;99.90;;;;;;5032486;28;20054;-66
2023/11/25 07:20:27;;;;;;;12.73;2.63;;;0.70;99.90;;;;;;5031495;28;20525;-65
2023/11/25 07:22:54;;;;;;;6.82;2.08;;;0.60;99.90;;;;;;5032704;28;20075;-64
2023/11/25 07:25:21;;;;;;;7.30;2.33;;;0.70;99.90;;;;;;5016534;28;20045;-65
2023/11/25 07:27:48;;;;;;;10.57;2.70;;;0.80;99.90;;;;;;5016311;28;20057;-66
2023/11/25 07:30:15;;;;;;;6.03;2.13;;;0.60;99.90;;;;;;5033744;28;20052;-66
2023/11/25 07:32:46;;;;;;;13.25;4.05;;;0.60;99.90;;;;;;4665130;28;10000043;-67
2023/11/25 07:35:13;;;;;;;10.88;3.42;;;0.60;99.90;;;;;;5029782;28;20049;-67
2023/11/25 07:37:40;;;;;;;14.68;3.00;;;0.60;99.90;;;;;;5025838;28;20109;-67
2023/11/25 07:40:14;;;;;;;7.50;2.92;;;0.60;99.90;;;;;;5025358;28;20042;-66
2023/11/25 07:42:48;;;;;;;8.07;3.70;;;0.60;99.90;;;;;;5012052;28;20045;-69
2023/11/25 07:45:16;;;;;;;8.05;2.15;;;0.60;99.90;;;;;;5007339;28;20092;-67
2023/11/25 07:47:44;;;;;;;8.90;2.30;;;0.60;99.90;;;;;;5015975;28;20335;-67
2023/11/25 07:50:11;;;;;;;10.05;2.85;;;0.50;99.90;;;;;;5023048;28;20225;-66
2023/11/25 07:52:38;;;;;;;10.48;2.60;;;0.50;99.90;;;;;;5026853;28;20049;-68
2023/11/25 07:55:06;;;;;;;5.90;2.67;;;0.60;99.90;;;;;;5029027;28;20396;-66
2023/11/25 07:57:33;;;;;;;10.30;2.47;;;0.60;99.90;;;;;;5030368;28;20491;-66
2023/11/25 08:00:00;;;;;;;8.38;2.53;;;0.60;99.90;;;;;;5028935;28;20041;-65
2023/11/25 08:02:27;;;;;;;5.47;2.22;;;0.60;99.90;;;;;;5029712;28;20375;-65
2023/11/25 08:04:54;;;;;;;17.92;3.08;;;0.60;99.90;;;;;;5026877;28;20047;-65
2023/11/25 08:07:23;;;;;;;19.50;3.55;;;0.60;99.90;;;;;;5021728;28;20061;-65
2023/11/25 08:09:51;;;;;;;9.07;2.13;;;0.70;99.90;;;;;;5022147;28;20069;-67
2023/11/25 08:12:18;;;;;;;7.20;2.38;;;0.70;99.90;;;;;;5011562;28;20050;-65
2023/11/25 08:14:47;;;;;;;8.95;2.90;;;0.70;99.90;;;;;;5023260;28;20192;-67
2023/11/25 08:17:14;;;;;;;10.55;2.92;;;0.80;99.90;;;;;;5028184;28;20045;-67
2023/11/25 08:19:41;;;;;;;9.35;2.33;;;0.80;99.90;;;;;;5009514;28;20477;-65
2023/11/25 08:22:09;;;;;;;5.55;1.88;;;0.80;99.90;;;;;;5024780;28;20054;-66
2023/11/25 08:24:36;;;;;;;13.23;2.58;;;0.90;99.90;;;;;;5024830;28;20045;-66
2023/11/25 08:27:03;;;;;;;6.40;2.03;;;0.90;99.90;;;;;;5020341;28;20064;-66
2023/11/25 08:29:30;;;;;;;6.20;2.70;;;0.90;99.90;;;;;;5000651;28;20053;-72
2023/11/25 08:31:57;;;;;;;10.18;2.67;;;1.00;99.90;;;;;;5001289;28;20099;-66
2023/11/25 08:34:24;;;;;;;12.23;2.38;;;1.00;99.90;;;;;;4990266;28;20068;-66
2023/11/25 08:36:53;;;;;;;12.20;2.75;;;1.00;99.90;;;;;;5017406;28;20049;-66
2023/11/25 08:39:21;;;;;;;11.57;2.88;;;1.00;99.90;;;;;;5018228;28;20053;-64
2023/11/25 08:41:48;;;;;;;9.85;2.45;;;1.00;99.90;;;;;;5020257;28;20045;-65
2023/11/25 08:44:15;;;;;;;11.75;3.72;;;1.10;99.90;;;;;;4991850;28;20091;-65
2023/11/25 08:46:42;;;;;;;12.38;2.80;;;1.10;99.90;;;;;;5023469;28;20207;-65
2023/11/25 08:49:18;;;;;;;11.10;4.45;;;1.10;99.90;;;;;;5024633;28;20672;-65
2023/11/25 08:51:49;;;;;;;9.75;2.63;;;1.20;99.90;;;;;;5009930;28;20502;-64
2023/11/25 08:54:20;;;;;;;14.35;3.20;;;1.20;99.90;;;;;;5025696;28;20048;-66
2023/11/25 08:56:48;;;;;;;15.55;3.78;;;1.20;99.90;;;;;;5021461;28;20354;-65
2023/11/25 08:59:20;;;;;;;8.35;2.72;;;1.30;99.90;;;;;;5026265;28;20046;-63
2023/11/25 09:01:47;;;;;;;23.77;4.50;;;1.30;99.90;;;;;;5025553;28;20075;-64
2023/11/25 09:04:19;;;;;;;8.55;2.92;;;1.40;99.90;;;;;;5020509;28;20046;-66
2023/11/25 09:06:47;;;;;;;13.35;2.95;;;1.40;99.90;;;;;;5022735;28;20119;-66
2023/11/25 09:09:20;;;;;;;12.70;3.40;;;1.50;99.90;;;;;;5028067;28;20049;-65
2023/11/25 09:11:50;;;;;;;10.20;3.63;;;1.50;99.90;;;;;;5024614;28;20091;-66
2023/11/25 09:14:19;;;;;;;13.82;3.00;;;1.70;99.90;;;;;;5023778;28;20064;-65
2023/11/25 09:16:50;;;;;;;5.35;2.42;;;1.60;99.90;;;;;;5022505;28;20050;-66
2023/11/25 09:19:17;;;;;;;7.88;2.53;;;1.80;99.90;;;;;;5026572;28;20076;-65
2023/11/25 09:21:44;;;;;;;13.23;3.70;;;1.70;99.90;;;;;;5025107;28;20625;-66
2023/11/25 09:24:12;;;;;;;15.85;5.53;;;1.80;99.90;;;;;;5020423;28;20045;-65
2023/11/25 09:26:38;;;;;;;18.10;4.30;;;1.90;99.90;;;;;;5027213;28;20057;-65
2023/11/25 09:29:05;;;;;;;13.90;3.40;;;1.90;99.90;;;;;;5025767;28;20547;-65
2023/11/25 09:31:33;;;;;;;13.25;4.03;;;2.00;99.90;;;;;;5025427;28;20547;-66
2023/11/25 09:34:02;;;;;;;19.33;6.00;;;2.00;99.90;;;;;;5023169;28;20339;-66
2023/11/25 09:36:33;;;;;;;8.68;2.65;;;2.10;99.90;;;;;;5007206;28;20053;-66
2023/11/25 09:39:00;;;;;;;15.30;3.47;;;2.10;99.90;;;;;;5027309;28;20045;-66
2023/11/25 09:41:30;;;;;;;14.05;3.05;;;2.20;99.90;;;;;;5027860;28;20111;-66
2023/11/25 09:43:57;;;;;;;11.05;2.38;;;2.20;99.90;;;;;;5019651;28;20046;-68
2023/11/25 09:46:24;;;;;;;10.85;2.92;;;2.30;99.90;;;;;;5029181;28;20053;-67
2023/11/25 09:48:51;;;;;;;7.22;2.83;;;2.40;99.90;;;;;;5007772;28;20140;-66
2023/11/25 09:51:20;;;;;;;16.45;3.20;;;2.40;99.90;;;;;;5022739;28;20062;-66
2023/11/25 09:53:47;;;;;;;9.95;3.05;;;2.50;99.90;;;;;;5002478;28;20077;-67
2023/11/25 09:56:14;;;;;;;8.63;2.78;;;2.40;99.90;;;;;;5005839;28;20050;-66
2023/11/25 09:58:41;;;;;;;14.10;3.05;;;2.50;99.90;;;;;;4995830;28;20052;-66
2023/11/25 10:01:12;;;;;;;13.63;3.15;;;2.60;99.90;;;;;;5021008;28;20054;-67
2023/11/25 10:03:42;;;;;;;13.27;3.63;;;2.60;99.90;;;;;;5028354;28;20042;-67
2023/11/25 10:06:11;;;;;;;16.55;2.85;;;2.60;99.90;;;;;;5014845;28;20045;-66
2023/11/25 10:08:38;;;;;;;10.27;3.15;;;2.70;99.90;;;;;;5030117;28;20045;-67
2023/11/25 10:11:07;;;;;;;12.57;2.83;;;2.70;99.90;;;;;;5015373;28;20049;-67
2023/11/25 10:13:38;;;;;;;9.32;2.90;;;2.70;99.90;;;;;;5030183;28;20053;-67
2023/11/25 10:16:08;;;;;;;11.77;3.55;;;2.80;99.90;;;;;;5024835;28;20053;-67
2023/11/25 10:18:36;;;;;;;17.08;3.30;;;2.80;99.90;;;;;;5032632;28;20528;-67
2023/11/25 10:21:06;;;;;;;7.13;2.72;;;2.90;99.90;;;;;;5031708;28;20045;-67
2023/11/25 10:23:34;;;;;;;7.70;2.78;;;3.00;99.90;;;;;;5028622;28;20103;-67
2023/11/25 10:26:05;;;;;;;8.70;2.63;;;3.10;99.90;;;;;;5033472;28;20045;-69
2023/11/25 10:28:32;;;;;;;14.55;2.75;;;3.10;99.90;;;;;;5032261;28;20056;-66
2023/11/25 10:31:01;;;;;;;14.50;3.72;;;3.10;99.90;;;;;;5024799;28;20077;-67
2023/11/25 10:33:28;;;;;;;9.02;2.38;;;3.10;99.90;;;;;;5031468;28;20287;-67
2023/11/25 10:35:55;;;;;;;12.05;3.10;;;3.10;99.90;;;;;;5015313;28;20045;-66
2023/11/25 10:38:26;;;;;;;11.02;2.33;;;3.20;99.90;;;;;;5015269;28;20069;-66
2023/11/25 10:41:00;;;;;;;8.88;3.30;;;3.30;99.90;;;;;;5013299;28;20390;-66
2023/11/25 10:43:29;;;;;;;20.50;4.10;;;3.40;99.90;;;;;;5011586;28;20080;-66
2023/11/25 10:46:04;;;;;;;10.30;2.83;;;3.30;99.90;;;;;;5003140;28;20058;-66
2023/11/25 10:48:32;;;;;;;18.20;4.00;;;3.40;99.90;;;;;;5028831;28;20544;-66
2023/11/25 10:50:59;;;;;;;15.80;3.75;;;3.40;99.90;;;;;;5027271;28;20091;-66
2023/11/25 10:53:35;;;;;;;8.43;3.03;;;3.50;99.90;;;;;;5015322;28;20049;-66
2023/11/25 10:56:03;;;;;;;7.57;2.28;;;3.60;99.90;;;;;;5029202;28;20042;-66
2023/11/25 10:58:31;;;;;;;9.32;1.85;;;3.50;99.90;;;;;;5030901;28;20665;-66
2023/11/25 11:00:58;;;;;;;13.18;3.15;;;3.50;99.90;;;;;;4992213;28;20049;-66
2023/11/25 11:03:51;;;;;;;11.18;2.78;;;3.60;99.90;;;;;;5030132;28;20057;-66
2023/11/25 11:06:27;;;;;;;9.55;2.83;;;3.70;99.90;;;;;;5010360;28;20100;-68
2023/11/25 11:08:54;;;;;;;9.13;3.10;;;3.80;99.90;;;;;;5010982;28;20060;-66
2023/11/25 11:11:47;;;;;;;9.05;3.30;;;3.90;99.90;;;;;;5009702;28;20046;-66
2023/11/25 11:14:15;;;;;;;10.05;2.50;;;3.90;99.90;;;;;;5013034;28;20058;-66
2023/11/25 11:16:42;;;;;;;14.98;2.65;;;3.90;99.90;;;;;;5021427;28;20648;-66
2023/11/25 11:19:09;;;;;;;19.48;3.78;;;4.10;99.90;;;;;;5022919;28;20049;-67
2023/11/25 11:21:37;;;;;;;7.57;2.65;;;4.10;99.90;;;;;;5027950;28;20077;-66
2023/11/25 11:24:06;;;;;;;9.98;1.98;;;4.10;99.90;;;;;;5004739;28;20059;-66
2023/11/25 11:26:43;;;;;;;12.95;2.58;;;4.20;99.90;;;;;;5008105;28;20081;-66
2023/11/25 11:29:28;;;;;;;11.80;1.98;;;4.20;99.90;;;;;;5014713;28;20068;-68
2023/11/25 11:32:02;;;;;;;6.68;2.58;;;4.30;99.90;;;;;;5004905;28;20054;-67
2023/11/25 11:34:34;;;;;;;5.68;2.78;;;4.30;99.90;;;;;;5019140;28;20057;-67
2023/11/25 11:37:01;;;;;;;16.80;3.67;;;4.30;99.90;;;;;;5025333;28;20049;-67
2023/11/25 11:39:37;;;;;;;8.23;2.75;;;4.40;99.90;;;;;;5029945;28;20049;-66
2023/11/25 11:42:23;;;;;;;11.63;2.40;;;4.40;99.90;;;;;;5029884;28;20045;-66
2023/11/25 11:45:25;;;;;;;8.55;3.10;;;4.50;99.90;;;;;;5008344;28;20475;-66
2023/11/25 11:47:53;;;;;;;11.23;3.03;;;4.50;99.90;;;;;;5023942;28;20060;-67
2023/11/25 11:50:29;;;;;;;8.88;2.33;;;4.60;99.90;;;;;;5011750;28;20049;-66
2023/11/25 11:52:59;;;;;;;7.60;2.45;;;4.70;99.90;;;;;;5000153;28;20049;-67
2023/11/25 11:55:33;;;;;;;10.60;2.30;;;4.70;99.90;;;;;;5031237;28;20046;-68
2023/11/25 11:58:08;;;;;;;10.98;2.95;;;4.80;99.90;;;;;;5031777;28;20053;-66
2023/11/25 12:00:47;;;;;;;7.32;2.47;;;4.90;99.90;;;;;;5030308;28;21187;-66
2023/11/25 12:03:14;;;;;;;11.70;2.83;;;4.90;99.90;;;;;;5030094;28;20103;-66
2023/11/25 12:05:42;;;;;;;13.10;2.72;;;4.90;99.90;;;;;;5023239;28;20050;-67
2023/11/25 12:08:09;;;;;;;16.90;2.72;;;5.00;99.90;;;;;;5020350;28;20050;-66
2023/11/25 12:10:36;;;;;;;13.98;2.65;;;5.10;99.90;;;;;;5004322;28;20061;-66
2023/11/25 12:13:04;;;;;;;6.75;2.45;;;5.10;99.90;;;;;;5011219;28;20041;-67
2023/11/25 12:15:31;;;;;;;8.15;2.63;;;5.20;99.90;;;;;;5030857;28;20038;-67
2023/11/25 12:17:58;;;;;;;15.10;2.97;;;5.20;99.90;;;;;;5007439;28;20057;-65
2023/11/25 12:20:29;;;;;;;20.00;2.72;;;5.20;99.90;;;;;;5030756;28;20041;-65
2023/11/25 12:22:56;;;;;;;8.00;1.90;;;5.30;99.90;;;;;;5023459;28;20534;-66
2023/11/25 12:25:23;;;;;;;7.28;2.13;;;5.30;99.90;;;;;;5031607;28;20049;-66
2023/11/25 12:27:54;;;;;;;11.10;1.70;;;5.40;99.90;;;;;;5011464;28;20056;-67
2023/11/25 12:30:21;;;;;;;10.40;2.03;;;5.50;99.90;;;;;;5032433;28;20055;-67
2023/11/25 12:32:47;;;;;;;10.48;1.90;;;5.50;99.90;;;;;;5027961;28;20049;-67
2023/11/25 12:35:15;;;;;;;18.73;3.05;;;5.60;99.90;;;;;;5030057;28;20079;-68
2023/11/25 12:37:46;;;;;;;11.02;2.20;;;5.70;99.90;;;;;;5013042;28;20049;-67
2023/11/25 12:40:22;;;;;;;8.07;2.33;;;5.70;99.90;;;;;;5014325;28;20053;-67
2023/11/25 12:42:53;;;;;;;17.08;2.90;;;5.70;99.90;;;;;;5031281;28;20317;-67
2023/11/25 12:45:40;;;;;;;9.27;2.40;;;5.60;99.90;;;;;;5027415;28;20049;-69
2023/11/25 12:48:11;;;;;;;9.20;2.85;;;5.50;99.90;;;;;;5029958;28;20777;-68
2023/11/25 12:51:07;;;;;;;17.02;4.97;;;5.60;99.90;;;;;;5032704;28;20081;-67
2023/11/25 12:53:37;;;;;;;12.68;2.90;;;5.60;99.90;;;;;;5009400;28;20104;-68
2023/11/25 12:56:09;;;;;;;5.88;2.50;;;5.70;99.90;;;;;;5032698;28;20037;-68
2023/11/25 12:58:36;;;;;;;6.93;1.70;;;5.70;99.90;;;;;;4999289;28;20057;-68
2023/11/25 13:01:04;;;;;;;8.93;1.45;;;5.70;99.90;;;;;;5012306;28;20045;-66